Temp     Hi    Low   Out    Dew  Wind  Wind   Wind    Hi    Hi   Wind   Heat    THW                Rain    Heat    Cool    In     In    In     In     In   In Air   Temp  Wind  Wind    ISS   Arc.
  Date    Time     Out   Temp   Temp   Hum    Pt. Speed   Dir    Run Speed   Dir  Chill  Index  Index   Bar    Rain  Rate    D-D     D-D    Temp   Hum    Dew   Heat    EMC Density    2nd  Samp   Tx   Recept  Int.
----------------------------------------------------------------------------------------------------------------------------------------------------------------------------------------------------------------------
27/05/20 12:10a    9.4    9.4    9.4    80    6.1   0.0   ---   0.00   0.0   ---    9.4    9.3    9.3  1022.5  0.00   0.0   0.062   0.000   19.7    38    5.0   18.2   7.55 1.2065     ---   186    1     81.6   10 
27/05/20 12:20a    9.4    9.4    9.4    81    6.3   0.0   ---   0.00   0.0   ---    9.4    9.3    9.3  1022.4  0.00   0.0   0.062   0.000   19.6    38    4.9   18.1   7.55 1.2069     ---   182    1     79.8   10 
27/05/20 12:30a    9.4    9.4    9.4    81    6.3   0.0   ---   0.00   0.0   ---    9.4    9.3    9.3  1022.3  0.00   0.0   0.062   0.000   19.5    39    5.2   18.1   7.71 1.2070     ---   182    1     79.8   10 
27/05/20 12:40a    9.3    9.4    9.3    82    6.4   0.0   ---   0.00   0.0   ---    9.3    9.3    9.3  1022.3  0.00   0.0   0.063   0.000   19.4    39    5.1   18.0   7.71 1.2073     ---   163    1     71.5   10 
27/05/20 12:50a    9.3    9.3    9.3    82    6.4   0.0   ---   0.00   0.0   ---    9.3    9.3    9.3  1022.1  0.00   0.0   0.063   0.000   19.3    39    5.0   17.9   7.71 1.2076     ---   151    1     66.2   10 
27/05/20  1:00a    9.2    9.3    9.2    82    6.3   0.0   ---   0.00   0.0   ---    9.2    9.2    9.2  1022.2  0.00   0.0   0.063   0.000   19.3    39    5.0   17.8   7.72 1.2079     ---   165    1     72.4   10 
27/05/20  1:10a    9.1    9.2    9.1    82    6.2   0.0   ---   0.00   0.0   ---    9.1    9.1    9.1  1022.2  0.00   0.0   0.064   0.000   19.2    39    4.9   17.7   7.72 1.2085     ---   202    1     88.6   10 
27/05/20  1:20a    8.9    9.1    8.9    82    6.0   0.0   ---   0.00   0.0   ---    8.9    8.9    8.9  1021.8  0.00   0.0   0.065   0.000   19.1    39    4.8   17.6   7.72 1.2086     ---   177    1     77.6   10 
27/05/20  1:30a    8.6    8.9    8.6    81    5.5   0.0   ---   0.00   0.0   ---    8.6    8.6    8.6  1021.7  0.00   0.0   0.068   0.000   19.0    39    4.7   17.5   7.73 1.2088     ---   159    1     69.7   10 
27/05/20  1:40a    8.2    8.6    8.2    81    5.2   0.0   ---   0.00   0.0   ---    8.2    8.1    8.1  1021.7  0.00   0.0   0.070   0.000   18.9    39    4.6   17.4   7.73 1.2093     ---   185    1     81.1   10 
27/05/20  1:50a    7.8    8.2    7.8    81    4.8   0.0   ---   0.00   0.0   ---    7.8    7.7    7.7  1021.8  0.00   0.0   0.073   0.000   18.8    39    4.6   17.3   7.73 1.2096     ---   187    1     82.0   10 
27/05/20  2:00a    7.4    7.8    7.4    81    4.3   0.0   ---   0.00   0.0   ---    7.4    7.3    7.3  1021.9  0.00   0.0   0.076   0.000   18.7    39    4.5   17.2   7.74 1.2103     ---   181    1     79.4   10 
27/05/20  2:10a    7.0    7.4    7.0    82    4.1   0.0   ---   0.00   0.0   ---    7.0    6.9    6.9  1021.9  0.00   0.0   0.079   0.000   18.6    39    4.4   17.1   7.74 1.2108     ---   170    1     74.6   10 
27/05/20  2:20a    6.8    7.0    6.8    82    3.9   0.0   ---   0.00   0.0   ---    6.8    6.7    6.7  1021.7  0.00   0.0   0.080   0.000   18.6    39    4.3   17.1   7.74 1.2109     ---   177    1     77.6   10 
27/05/20  2:30a    6.3    6.7    6.3    82    3.5   0.0   ---   0.00   0.0   ---    6.3    6.2    6.2  1021.6  0.00   0.0   0.083   0.000   18.3    39    4.1   16.8   7.75 1.2118     ---   158    1     69.3   10 
27/05/20  2:40a    6.1    6.3    6.1    83    3.4   0.0   ---   0.00   0.0   ---    6.1    5.9    5.9  1021.6  0.00   0.0   0.085   0.000   18.3    39    4.1   16.8   7.75 1.2121     ---   147    1     64.5   10 
27/05/20  2:50a    5.7    6.1    5.7    83    3.1   0.0   ---   0.00   0.0   ---    5.7    5.6    5.6  1021.6  0.00   0.0   0.088   0.000   18.2    39    4.0   16.7   7.74 1.2126     ---   174    1     76.3   10 
27/05/20  3:00a    5.6    5.7    5.6    85    3.2   0.0   ---   0.00   0.0   ---    5.6    5.4    5.4  1021.4  0.00   0.0   0.089   0.000   18.1    39    3.9   16.6   7.74 1.2127     ---   191    1     83.8   10 
27/05/20  3:10a    5.4    5.6    5.4    85    3.1   0.0   ---   0.00   0.0   ---    5.4    5.3    5.3  1021.4  0.00   0.0   0.090   0.000   18.0    39    3.8   16.4   7.74 1.2132     ---   180    1     78.9   10 
27/05/20  3:20a    5.2    5.4    5.2    85    2.9   0.0   ---   0.00   0.0   ---    5.2    5.1    5.1  1021.5  0.00   0.0   0.091   0.000   17.9    39    3.7   16.3   7.73 1.2138     ---   180    1     78.9   10 
27/05/20  3:30a    5.0    5.2    4.9    86    2.9   0.0   ---   0.00   0.0   ---    5.0    4.9    4.9  1021.3  0.00   0.0   0.093   0.000   17.8    39    3.7   16.3   7.73 1.2138     ---   167    1     73.2   10 
27/05/20  3:40a    4.8    4.9    4.8    86    2.7   0.0   ---   0.00   0.0   ---    4.8    4.7    4.7  1021.3  0.00   0.0   0.094   0.000   17.7    39    3.6   16.2   7.73 1.2143     ---   166    1     72.8   10 
27/05/20  3:50a    4.7    4.8    4.7    86    2.5   0.0   ---   0.00   0.0   ---    4.7    4.6    4.6  1021.1  0.00   0.0   0.095   0.000   17.6    39    3.5   16.1   7.72 1.2147     ---   178    1     78.1   10 
27/05/20  4:00a    4.4    4.7    4.4    87    2.5   0.0   ---   0.00   0.0   ---    4.4    4.3    4.3  1021.1  0.00   0.0   0.096   0.000   17.6    39    3.4   16.0   7.72 1.2149     ---   182    1     79.8   10 
27/05/20  4:10a    4.3    4.4    4.3    87    2.3   0.0   ---   0.00   0.0   ---    4.3    4.2    4.2  1021.1  0.00   0.0   0.098   0.000   17.4    39    3.3   15.9   7.72 1.2154     ---   179    1     78.5   10 
27/05/20  4:20a    4.2    4.3    4.2    87    2.2   0.0   ---   0.00   0.0   ---    4.2    4.1    4.1  1021.3  0.00   0.0   0.098   0.000   17.4    39    3.3   15.8   7.72 1.2159     ---   172    1     75.4   10 
27/05/20  4:30a    4.1    4.2    4.1    88    2.2   0.0   ---   0.00   0.0   ---    4.1    4.0    4.0  1021.5  0.00   0.0   0.099   0.000   17.2    39    3.1   15.7   7.71 1.2169     ---   153    1     67.1   10 
27/05/20  4:40a    4.1    4.1    4.1    88    2.2   0.0   ---   0.00   0.0   ---    4.1    4.0    4.0  1021.5  0.00   0.0   0.099   0.000   17.1    39    3.0   15.6   7.71 1.2175     ---   151    1     66.2   10 
27/05/20  4:50a    3.9    4.1    3.9    88    2.1   0.0   ---   0.00   0.0   ---    3.9    3.8    3.8  1021.5  0.00   0.0   0.100   0.000   17.0    39    2.9   15.4   7.70 1.2180     ---   170    1     74.6   10 
27/05/20  5:00a    3.8    3.9    3.8    89    2.2   0.0   ---   0.00   0.0   ---    3.8    3.8    3.8  1021.6  0.00   0.0   0.101   0.000   16.9    39    2.9   15.4   7.70 1.2184     ---   184    1     80.7   10 
27/05/20  5:10a    3.8    3.8    3.7    89    2.2   0.0   ---   0.00   0.0   ---    3.8    3.8    3.8  1021.6  0.00   0.0   0.101   0.000   16.8    39    2.8   15.3   7.70 1.2189     ---   178    1     78.1   10 
27/05/20  5:20a    3.7    3.7    3.7    89    2.0   0.0   ---   0.00   0.0   ---    3.7    3.6    3.6  1021.6  0.00   0.0   0.102   0.000   16.8    39    2.7   15.2   7.69 1.2192     ---   176    1     77.2   10 
27/05/20  5:30a    3.7    3.7    3.7    89    2.1   0.0   ---   0.00   0.0   ---    3.7    3.7    3.7  1021.6  0.00   0.0   0.101   0.000   16.7    39    2.6   15.1   7.69 1.2197     ---   175    1     76.8   10 
27/05/20  5:40a    3.7    3.7    3.7    90    2.2   0.0   ---   0.00   0.0   ---    3.7    3.7    3.7  1021.6  0.00   0.0   0.101   0.000   16.6    39    2.6   15.1   7.69 1.2200     ---   174    1     76.3   10 
27/05/20  5:50a    3.7    3.7    3.7    90    2.2   0.0   ---   0.00   0.0   ---    3.7    3.6    3.6  1021.6  0.00   0.0   0.102   0.000   16.5    39    2.5   14.9   7.68 1.2205     ---   181    1     79.4   10 
27/05/20  6:00a    3.7    3.7    3.7    90    2.2   0.0   ---   0.00   0.0   ---    3.7    3.6    3.6  1021.6  0.00   0.0   0.102   0.000   16.4    39    2.4   14.8   7.68 1.2211     ---   174    1     76.3   10 
27/05/20  6:10a    3.7    3.7    3.7    90    2.2   0.0   ---   0.00   0.0   ---    3.7    3.7    3.7  1021.6  0.00   0.0   0.101   0.000   16.3    39    2.3   14.8   7.68 1.2213     ---   181    1     79.4   10 
27/05/20  6:20a    3.8    3.8    3.7    91    2.5   0.0   ---   0.00   0.0   ---    3.8    3.8    3.8  1021.6  0.00   0.0   0.101   0.000   16.3    39    2.3   14.8   7.68 1.2214     ---   177    1     77.6   10 
27/05/20  6:30a    3.8    3.8    3.8    91    2.5   0.0   ---   0.00   0.0   ---    3.8    3.8    3.8  1021.6  0.00   0.0   0.101   0.000   16.2    39    2.2   14.7   7.67 1.2219     ---   157    1     68.9   10 
27/05/20  6:40a    3.7    3.8    3.7    91    2.4   0.0   ---   0.00   0.0   ---    3.7    3.7    3.7  1021.6  0.00   0.0   0.101   0.000   16.2    39    2.2   14.6   7.67 1.2222     ---   147    1     64.5   10 
27/05/20  6:50a    3.7    3.7    3.7    91    2.4   0.0   ---   0.00   0.0   ---    3.7    3.7    3.7  1021.6  0.00   0.0   0.101   0.000   16.1    39    2.1   14.5   7.67 1.2227     ---   156    1     68.4   10 
27/05/20  7:00a    3.7    3.7    3.7    92    2.5   0.0   ---   0.00   0.0   ---    3.7    3.7    3.7  1021.6  0.00   0.0   0.101   0.000   16.4    40    2.7   14.9   7.85 1.2209     ---   200    1     87.7   10 
27/05/20  7:10a    3.8    3.8    3.7    92    2.7   0.0   ---   0.00   0.0   ---    3.8    3.8    3.8  1021.6  0.00   0.0   0.101   0.000   17.0    40    3.3   15.5   7.85 1.2179     ---   176    1     77.2   10 
27/05/20  7:20a    4.0    4.0    3.8    92    2.8   0.0   ---   0.00   0.0   ---    4.0    3.9    3.9  1021.8  0.00   0.0   0.100   0.000   17.7    40    3.9   16.2   7.85 1.2147     ---   176    1     77.2   10 
27/05/20  7:30a    4.1    4.1    3.9    92    2.9   0.0   ---   0.00   0.0   ---    4.1    4.1    4.1  1022.0  0.00   0.0   0.099   0.000   18.2    39    4.0   16.7   7.74 1.2130     ---   172    1     75.4   10 
27/05/20  7:40a    4.3    4.3    4.1    93    3.2   0.0   ---   0.00   0.0   ---    4.3    4.3    4.3  1022.0  0.00   0.0   0.098   0.000   18.8    41    5.3   17.4   7.95 1.2093     ---   165    1     72.4   10 
27/05/20  7:50a    4.4    4.4    4.3    93    3.4   0.0   ---   0.00   0.0   ---    4.4    4.4    4.4  1022.1  0.00   0.0   0.096   0.000   19.3    40    5.3   17.9   7.82 1.2076     ---   154    1     67.5   10 
27/05/20  8:00a    4.6    4.6    4.4    93    3.6   0.0   ---   0.00   0.0   ---    4.6    4.6    4.6  1022.2  0.00   0.0   0.095   0.000   19.7    39    5.4   18.3   7.70 1.2059     ---   170    1     74.6   10 
27/05/20  8:10a    4.8    4.8    4.6    93    3.7   0.0   ---   0.00   0.0   ---    4.8    4.8    4.8  1022.2  0.00   0.0   0.094   0.000   19.9    38    5.1   18.4   7.55 1.2053     ---   178    1     78.1   10 
27/05/20  8:20a    5.1    5.1    4.8    95    4.4   0.0   ---   0.00   0.0   ---    5.1    5.2    5.2  1022.3  0.00   0.0   0.092   0.000   20.3    38    5.5   18.8   7.55 1.2036     ---   177    1     77.6   10 
27/05/20  8:30a    5.4    5.4    5.1    95    4.7   0.0   ---   0.00   0.0   ---    5.4    5.4    5.4  1022.2  0.00   0.0   0.090   0.000   20.4    38    5.6   19.0   7.55 1.2026     ---   148    1     64.9   10 
27/05/20  8:40a    5.8    5.8    5.5    95    5.0   0.0   ---   0.00   0.0   ---    5.8    5.8    5.8  1022.2  0.00   0.0   0.087   0.000   20.8    37    5.6   19.3   7.35 1.2011     ---    64    1     28.1   10 
27/05/20  8:50a    6.3    6.3    6.1    96    5.7   0.0   ---   0.00   0.0   ---    6.3    6.4    6.4  1022.0  0.00   0.0   0.083   0.000   21.3    38    6.4   19.7   7.54 1.1986     ---    56    1     24.6   10 
27/05/20  9:00a    7.1    7.1    6.6    97    6.6   0.0   ---   0.00   0.0   ---    7.1    7.2    7.2  1022.2  0.00   0.0   0.078   0.000   21.6    36    5.8   20.0   7.22 1.1980     ---   178    1     78.1   10 
27/05/20  9:10a    7.7    7.7    7.2    97    7.3   0.0   ---   0.00   0.0   ---    7.7    7.9    7.9  1022.2  0.00   0.0   0.074   0.000   21.8    37    6.4   20.3   7.33 1.1966     ---   156    1     68.4   10 
27/05/20  9:20a    7.9    7.9    7.7    97    7.5   0.0   ---   0.00   0.0   ---    7.9    8.2    8.2  1022.1  0.00   0.0   0.072   0.000   22.2    36    6.4   20.9   7.17 1.1950     ---    95    1     41.7   10 
27/05/20  9:30a    8.3    8.3    7.9    96    7.7   0.0   ---   0.00   0.0   ---    8.3    8.4    8.4  1022.1  0.00   0.0   0.070   0.000   22.4    35    6.2   21.2   7.00 1.1940     ---    94    1     41.2   10 
27/05/20  9:40a    8.6    8.6    8.3    96    8.0   0.0   ---   0.00   0.0   ---    8.6    8.8    8.8  1022.1  0.00   0.0   0.068   0.000   22.3    36    6.5   21.1   7.16 1.1942     ---   132    1     57.9   10 
27/05/20  9:50a    9.1    9.1    8.6    96    8.5   0.0   ---   0.00   0.0   ---    9.1    9.3    9.3  1022.0  0.00   0.0   0.064   0.000   22.6    36    6.8   21.6   7.14 1.1928     ---   143    1     62.7   10 
27/05/20 10:00a    9.4    9.4    9.1    93    8.4   0.0   ---   0.00   0.0   ---    9.4    9.7    9.7  1021.8  0.00   0.0   0.062   0.000   22.8    35    6.6   21.8   6.99 1.1918     ---    86    1     37.7   10 
27/05/20 10:10a    9.8    9.8    9.4    91    8.4   0.0   ---   0.00   0.0   ---    9.8   10.0   10.0  1021.8  0.00   0.0   0.059   0.000   22.7    34    6.0   21.6   6.79 1.1927     ---   104    1     45.6   10 
27/05/20 10:20a   10.2   10.2    9.8    88    8.3   0.0   ---   0.00   0.0   ---   10.2   10.3   10.3  1021.5  0.00   0.0   0.057   0.000   22.8    35    6.6   21.8   6.99 1.1914     ---    23    1     10.1   10 
27/05/20 10:30a   10.3   10.3   10.3    88    8.4   0.0   ---   0.00   0.0   ---   10.3   10.4   10.4  1021.4  0.00   0.0   0.056   0.000   23.1    34    6.4   22.2   6.78 1.1904     ---     9    1      3.9   10 
27/05/20 10:40a   10.7   10.7   10.6    83    7.9   0.0   ---   0.00   0.0   ---   10.7   10.7   10.7  1021.4  0.00   0.0   0.053   0.000   23.1    34    6.4   22.2   6.78 1.1904     ---    90    1     39.5   10 
27/05/20 10:50a   10.8   10.8   10.6    81    7.6   0.0   ---   0.00   0.0   ---   10.8   10.7   10.7  1021.5  0.00   0.0   0.052   0.000   23.2    34    6.4   22.3   6.78 1.1902     ---   119    1     52.2   10 
27/05/20 11:00a   11.3   11.3   10.8    80    8.0   0.0   ---   0.00   0.0   ---   11.3   11.2   11.2  1021.1  0.00   0.0   0.049   0.000   23.6    35    7.2   22.8   6.96 1.1876     ---   144    1     63.2   10 
27/05/20 11:10a   11.6   11.6   11.3    78    7.9   0.0   ---   0.00   0.0   ---   11.6   11.4   11.4  1021.1  0.00   0.0   0.047   0.000   23.5    33    6.3   22.7   6.56 1.1885     ---   133    1     58.3   10 
27/05/20 11:20a   11.9   11.9   11.6    76    7.8   0.0   ---   0.00   0.0   ---   11.9   11.6   11.6  1020.9  0.00   0.0   0.045   0.000   23.2    33    6.0   22.3   6.58 1.1898     ---   130    1     57.0   10 
27/05/20 11:30a   11.9   12.0   11.9    75    7.6   0.0   ---   0.00   0.0   ---   11.9   11.6   11.6  1020.3  0.00   0.0   0.045   0.000   23.2    34    6.4   22.3   6.78 1.1888     ---   147    1     64.5   10 
27/05/20 11:40a   12.0   12.1   11.9    73    7.3   0.0   ---   0.00   0.0   ---   12.0   11.7   11.7  1020.3  0.00   0.0   0.044   0.000   23.3    33    6.1   22.4   6.57 1.1886     ---   128    1     56.1   10 
27/05/20 11:50a   12.2   12.2   12.0    73    7.5   0.0   ---   0.00   0.0   ---   12.2   11.9   11.9  1020.0  0.00   0.0   0.042   0.000   23.2    33    6.0   22.3   6.58 1.1888     ---   102    1     44.7   10 
27/05/20 12:00p   12.9   12.9   12.2    73    8.2   0.0   ---   0.00   0.0   ---   12.9   12.6   12.6  1019.8  0.00   0.0   0.038   0.000   23.1    33    6.0   22.2   6.58 1.1888     ---    24    1     10.5   10 
27/05/20 12:10p   13.2   13.2   12.9    71    8.1   0.0   ---   0.00   0.0   ---   13.2   12.8   12.8  1019.8  0.00   0.0   0.035   0.000   23.1    34    6.4   22.2   6.78 1.1885     ---    38    1     16.7   10 
27/05/20 12:20p   13.2   13.2   13.1    69    7.6   0.0   ---   0.00   0.0   ---   13.2   12.7   12.7  1019.7  0.00   0.0   0.036   0.000   23.2    34    6.4   22.3   6.78 1.1881     ---   121    1     53.1   10 
27/05/20 12:30p   13.3   13.3   13.2    70    8.0   0.0   ---   0.00   0.0   ---   13.3   12.9   12.9  1019.4  0.00   0.0   0.035   0.000   23.1    34    6.4   22.2   6.78 1.1880     ---   142    1     62.3   10 
27/05/20 12:40p   13.3   13.3   13.2    71    8.2   0.0   ---   0.00   0.0   ---   13.3   12.9   12.9  1019.4  0.00   0.0   0.035   0.000   23.0    35    6.7   22.1   6.98 1.1882     ---   115    1     50.4   10 
27/05/20 12:50p   13.4   13.4   13.3    71    8.2   0.0   ---   0.00   0.0   ---   13.4   12.9   12.9  1019.2  0.00   0.0   0.034   0.000   22.9    35    6.6   21.9   6.99 1.1885     ---   107    1     46.9   10 
27/05/20  1:00p   13.6   13.6   13.4    70    8.2   0.0   ---   0.00   0.0   ---   13.6   13.1   13.1  1018.9  0.00   0.0   0.033   0.000   23.1    35    6.8   22.3   6.98 1.1871     ---   117    1     51.3   10 
27/05/20  1:10p   13.7   13.7   13.6    70    8.3   0.0   ---   0.00   0.0   ---   13.7   13.2   13.2  1018.9  0.00   0.0   0.032   0.000   23.1    35    6.8   22.3   6.98 1.1871     ---   151    1     66.2   10 
27/05/20  1:20p   13.7   13.7   13.7    70    8.3   0.0   ---   0.00   0.0   ---   13.7   13.3   13.3  1018.8  0.00   0.0   0.032   0.000   22.9    35    6.6   21.9   6.99 1.1881     ---   163    1     71.5   10 
27/05/20  1:30p   13.8   13.8   13.7    69    8.2   0.0   ---   0.00   0.0   ---   13.8   13.3   13.3  1018.6  0.00   0.0   0.032   0.000   22.8    35    6.6   21.8   6.99 1.1881     ---   118    1     51.8   10 
27/05/20  1:40p   13.9   13.9   13.8    69    8.3   0.0   ---   0.00   0.0   ---   13.9   13.5   13.5  1018.6  0.00   0.0   0.030   0.000   22.9    36    7.0   22.0   7.12 1.1875     ---    26    1     11.4   10 
27/05/20  1:50p   14.2   14.2   13.9    69    8.6   0.0   ---   0.00   0.0   ---   14.2   13.8   13.8  1018.5  0.00   0.0   0.029   0.000   23.0    36    7.1   22.2   7.11 1.1869     ---    40    1     17.5   10 
27/05/20  2:00p   14.1   14.3   14.1    67    8.1   0.0   ---   0.00   0.0   ---   14.1   13.6   13.6  1018.4  0.00   0.0   0.029   0.000   23.0    35    6.7   22.1   6.98 1.1871     ---   180    1     78.9   10 
27/05/20  2:10p   14.1   14.1   14.1    68    8.3   0.0   ---   0.00   0.0   ---   14.1   13.6   13.6  1018.4  0.00   0.0   0.029   0.000   22.9    35    6.6   21.9   6.99 1.1876     ---   155    1     68.0   10 
27/05/20  2:20p   14.4   14.4   14.1    67    8.3   0.0   ---   0.00   0.0   ---   14.4   13.9   13.9  1018.5  0.00   0.0   0.027   0.000   22.9    35    6.6   21.9   6.99 1.1877     ---   150    1     65.8   10 
27/05/20  2:30p   14.4   14.5   14.4    66    8.1   0.0   ---   0.00   0.0   ---   14.4   13.8   13.8  1018.4  0.00   0.0   0.027   0.000   22.8    36    7.0   21.9   7.13 1.1875     ---   124    1     54.4   10 
27/05/20  2:40p   14.1   14.4   14.1    65    7.6   0.0   ---   0.00   0.0   ---   14.1   13.5   13.5  1018.4  0.00   0.0   0.030   0.000   23.0    36    7.1   22.2   7.11 1.1867     ---   102    1     44.7   10 
27/05/20  2:50p   13.9   14.1   13.9    64    7.2   0.0   ---   0.00   0.0   ---   13.9   13.3   13.3  1018.5  0.00   0.0   0.031   0.000   23.0    35    6.7   22.1   6.98 1.1871     ---   121    1     53.1   10 
27/05/20  3:00p   13.9   13.9   13.8    65    7.4   0.0   ---   0.00   0.0   ---   13.9   13.3   13.3  1018.2  0.00   0.0   0.031   0.000   22.9    35    6.6   21.9   6.99 1.1873     ---    84    1     36.8   10 
27/05/20  3:10p   13.9   13.9   13.9    65    7.5   0.0   ---   0.00   0.0   ---   13.9   13.4   13.4  1018.2  0.00   0.0   0.030   0.000   22.9    35    6.6   21.9   6.99 1.1873     ---    21    1      9.2   10 
27/05/20  3:20p   13.9   13.9   13.9    64    7.2   0.0   ---   0.00   0.0   ---   13.9   13.3   13.3  1018.4  0.00   0.0   0.031   0.000   22.8    35    6.6   21.8   6.99 1.1878     ---    62    1     27.2   10 
27/05/20  3:30p   13.8   13.9   13.8    65    7.3   0.0   ---   0.00   0.0   ---   13.8   13.2   13.2  1018.3  0.00   0.0   0.032   0.000   22.7    36    6.9   21.7   7.13 1.1879     ---   184    1     80.7   10 
27/05/20  3:40p   13.7   13.8   13.7    65    7.3   0.0   ---   0.00   0.0   ---   13.7   13.2   13.2  1018.3  0.00   0.0   0.032   0.000   22.7    36    6.9   21.7   7.13 1.1879     ---   163    1     71.5   10 
27/05/20  3:50p   13.7   13.7   13.7    67    7.6   0.0   ---   0.00   0.0   ---   13.7   13.2   13.2  1018.5  0.00   0.0   0.032   0.000   22.5    36    6.7   21.4   7.15 1.1891     ---   110    1     48.2   10 
27/05/20  4:00p   13.4   13.7   13.4    67    7.4   0.0   ---   0.00   0.0   ---   13.4   12.9   12.9  1018.4  0.00   0.0   0.034   0.000   22.5    36    6.7   21.4   7.15 1.1891     ---   159    1     69.7   10 
27/05/20  4:10p   13.3   13.4   13.3    68    7.5   0.0   ---   0.00   0.0   ---   13.3   12.8   12.8  1018.4  0.00   0.0   0.035   0.000   22.6    36    6.8   21.6   7.14 1.1886     ---   165    1     72.4   10 
27/05/20  4:20p   13.2   13.3   13.2    69    7.6   0.0   ---   0.00   0.0   ---   13.2   12.7   12.7  1018.5  0.00   0.0   0.036   0.000   22.5    36    6.7   21.4   7.15 1.1891     ---   154    1     67.5   10 
27/05/20  4:30p   12.8   13.2   12.8    70    7.5   0.0   ---   0.00   0.0   ---   12.8   12.4   12.4  1018.5  0.00   0.0   0.038   0.000   22.3    36    6.5   21.1   7.16 1.1900     ---   184    1     80.7   10 
27/05/20  4:40p   12.6   12.8   12.6    71    7.4   0.0   ---   0.00   0.0   ---   12.6   12.2   12.2  1018.5  0.00   0.0   0.040   0.000   22.4    36    6.6   21.3   7.15 1.1895     ---   178    1     78.1   10 
27/05/20  4:50p   12.3   12.6   12.3    72    7.4   0.0   ---   0.00   0.0   ---   12.3   12.0   12.0  1018.7  0.00   0.0   0.042   0.000   22.4    37    7.0   21.3   7.30 1.1894     ---    58    1     25.4   10 
27/05/20  5:00p   12.1   12.3   12.1    73    7.4   0.0   ---   0.00   0.0   ---   12.1   11.7   11.7  1018.8  0.00   0.0   0.044   0.000   22.3    37    6.9   21.2   7.31 1.1900     ---    75    1     32.9   10 
27/05/20  5:10p   11.8   12.0   11.8    74    7.3   0.0   ---   0.00   0.0   ---   11.8   11.5   11.5  1018.8  0.00   0.0   0.046   0.000   22.3    37    6.9   21.2   7.31 1.1900     ---   120    1     52.6   10 
27/05/20  5:20p   11.5   11.8   11.5    75    7.2   0.0   ---   0.00   0.0   ---   11.5   11.2   11.2  1018.9  0.00   0.0   0.047   0.000   22.4    37    7.0   21.3   7.30 1.1896     ---   130    1     57.0   10 
27/05/20  5:30p   11.3   11.5   11.3    75    7.0   0.0   ---   0.00   0.0   ---   11.3   11.1   11.1  1018.9  0.00   0.0   0.049   0.000   22.2    37    6.8   21.0   7.31 1.1907     ---   159    1     69.7   10 
27/05/20  5:40p   10.9   11.3   10.9    76    6.9   0.0   ---   0.00   0.0   ---   10.9   10.8   10.8  1018.9  0.00   0.0   0.051   0.000   22.1    37    6.7   20.8   7.32 1.1914     ---   169    1     74.1   10 
27/05/20  5:50p   10.7   10.9   10.7    77    6.8   0.0   ---   0.00   0.0   ---   10.7   10.6   10.6  1019.1  0.00   0.0   0.053   0.000   22.2    37    6.8   20.9   7.31 1.1912     ---   186    1     81.6   10 
27/05/20  6:00p   10.4   10.7   10.4    78    6.8   0.0   ---   0.00   0.0   ---   10.4   10.3   10.3  1019.1  0.00   0.0   0.055   0.000   22.1    38    7.1   20.8   7.48 1.1914     ---   176    1     77.2   10 
27/05/20  6:10p   10.2   10.4   10.2    78    6.5   0.0   ---   0.00   0.0   ---   10.2   10.1   10.1  1019.1  0.00   0.0   0.057   0.000   22.1    38    7.1   20.8   7.48 1.1914     ---   121    1     53.1   10 
27/05/20  6:20p    9.9   10.2    9.9    79    6.5   0.0   ---   0.00   0.0   ---    9.9    9.9    9.9  1019.4  0.00   0.0   0.058   0.000   22.2    38    7.2   21.0   7.47 1.1912     ---   110    1     48.2   10 
27/05/20  6:30p    9.7    9.9    9.7    80    6.4   0.0   ---   0.00   0.0   ---    9.7    9.7    9.7  1019.5  0.00   0.0   0.060   0.000   22.2    38    7.2   21.0   7.47 1.1914     ---    75    1     32.9   10 
27/05/20  6:40p    9.4    9.6    9.4    80    6.2   0.0   ---   0.00   0.0   ---    9.4    9.4    9.4  1019.5  0.00   0.0   0.062   0.000   22.2    38    7.2   21.0   7.47 1.1914     ---   120    1     52.6   10 
27/05/20  6:50p    9.3    9.4    9.3    81    6.2   0.0   ---   0.00   0.0   ---    9.3    9.2    9.2  1019.7  0.00   0.0   0.063   0.000   22.1    38    7.1   20.8   7.48 1.1921     ---   191    1     83.8   10 
27/05/20  7:00p    9.1    9.3    9.1    82    6.2   0.0   ---   0.00   0.0   ---    9.1    9.1    9.1  1020.0  0.00   0.0   0.064   0.000   21.8    38    6.9   20.5   7.50 1.1935     ---   168    1     73.7   10 
27/05/20  7:10p    8.9    9.1    8.9    82    6.0   0.0   ---   0.00   0.0   ---    8.9    8.8    8.8  1020.0  0.00   0.0   0.066   0.000   21.8    38    6.9   20.5   7.50 1.1935     ---   179    1     78.5   10 
27/05/20  7:20p    8.6    8.9    8.6    83    5.9   0.0   ---   0.00   0.0   ---    8.6    8.6    8.6  1020.0  0.00   0.0   0.068   0.000   21.8    38    6.8   20.4   7.50 1.1938     ---   159    1     69.7   10 
27/05/20  7:30p    8.3    8.6    8.3    83    5.6   0.0   ---   0.00   0.0   ---    8.3    8.2    8.2  1020.2  0.00   0.0   0.070   0.000   21.7    38    6.7   20.2   7.51 1.1945     ---   172    1     75.4   10 
27/05/20  7:40p    8.1    8.3    8.1    84    5.6   0.0   ---   0.00   0.0   ---    8.1    8.1    8.1  1020.2  0.00   0.0   0.071   0.000   21.6    38    6.6   20.1   7.52 1.1950     ---   196    1     86.0   10 
27/05/20  7:50p    7.9    8.1    7.9    84    5.4   0.0   ---   0.00   0.0   ---    7.9    7.9    7.9  1020.4  0.00   0.0   0.073   0.000   21.4    38    6.5   19.9   7.53 1.1960     ---   191    1     83.8   10 
27/05/20  8:00p    7.7    7.9    7.7    84    5.1   0.0   ---   0.00   0.0   ---    7.7    7.6    7.6  1020.2  0.00   0.0   0.074   0.000   21.4    38    6.5   19.9   7.53 1.1959     ---   180    1     78.9   10 
27/05/20  8:10p    7.3    7.7    7.3    84    4.8   0.0   ---   0.00   0.0   ---    7.3    7.3    7.3  1020.2  0.00   0.0   0.076   0.000   21.3    38    6.4   19.7   7.54 1.1964     ---   145    1     63.6   10 
27/05/20  8:20p    7.1    7.2    7.1    85    4.7   0.0   ---   0.00   0.0   ---    7.1    7.0    7.0  1019.9  0.00   0.0   0.078   0.000   21.3    39    6.8   19.8   7.64 1.1957     ---   119    1     52.2   10 
27/05/20  8:30p    6.8    7.1    6.8    85    4.5   0.0   ---   0.00   0.0   ---    6.8    6.8    6.8  1019.9  0.00   0.0   0.080   0.000   21.2    38    6.3   19.7   7.54 1.1963     ---   181    1     79.4   10 
27/05/20  8:40p    6.7    6.8    6.7    86    4.5   0.0   ---   0.00   0.0   ---    6.7    6.6    6.6  1019.9  0.00   0.0   0.081   0.000   21.2    38    6.3   19.7   7.54 1.1963     ---   201    1     88.2   10 
27/05/20  8:50p    6.6    6.7    6.6    86    4.4   0.0   ---   0.00   0.0   ---    6.6    6.6    6.6  1019.9  0.00   0.0   0.081   0.000   21.2    38    6.3   19.7   7.54 1.1963     ---   190    1     83.3   10 
27/05/20  9:00p    6.5    6.6    6.5    87    4.5   0.0   ---   0.00   0.0   ---    6.5    6.5    6.5  1019.7  0.00   0.0   0.082   0.000   21.0    38    6.1   19.4   7.55 1.1972     ---   188    1     82.5   10 
27/05/20  9:10p    6.6    6.6    6.4    88    4.8   0.0   ---   0.00   0.0   ---    6.6    6.6    6.6  1019.7  0.00   0.0   0.081   0.000   21.1    38    6.2   19.5   7.55 1.1966     ---   186    1     81.6   10 
27/05/20  9:20p    6.8    6.8    6.6    89    5.1   0.0   ---   0.00   0.0   ---    6.8    6.8    6.8  1019.4  0.00   0.0   0.080   0.000   20.9    38    6.1   19.4   7.55 1.1971     ---   184    1     80.7   10 
27/05/20  9:30p    6.8    6.8    6.8    89    5.1   0.0   ---   0.00   0.0   ---    6.8    6.8    6.8  1019.5  0.00   0.0   0.080   0.000   21.0    38    6.1   19.4   7.55 1.1969     ---   188    1     82.5   10 
27/05/20  9:40p    6.8    6.8    6.8    89    5.1   0.0   ---   0.00   0.0   ---    6.8    6.8    6.8  1019.5  0.00   0.0   0.080   0.000   20.8    38    6.0   19.3   7.55 1.1977     ---   197    1     86.4   10 
27/05/20  9:50p    6.8    6.8    6.8    89    5.1   0.0   ---   0.00   0.0   ---    6.8    6.8    6.8  1019.2  0.00   0.0   0.080   0.000   20.9    38    6.1   19.4   7.55 1.1968     ---   184    1     80.7   10 
27/05/20 10:00p    6.8    6.8    6.8    90    5.3   0.0   ---   0.00   0.0   ---    6.8    6.8    6.8  1019.2  0.00   0.0   0.080   0.000   20.8    38    6.0   19.3   7.55 1.1973     ---   171    1     75.0   10 
27/05/20 10:10p    7.0    7.0    6.8    91    5.6   0.0   ---   0.00   0.0   ---    7.0    7.1    7.1  1019.2  0.00   0.0   0.079   0.000   20.9    38    6.1   19.4   7.55 1.1968     ---   159    1     69.7   10 
27/05/20 10:20p    7.0    7.0    7.0    91    5.6   0.0   ---   0.00   0.0   ---    7.0    7.1    7.1  1018.9  0.00   0.0   0.079   0.000   20.8    38    6.0   19.3   7.55 1.1970     ---   142    1     62.3   10 
27/05/20 10:30p    7.0    7.0    7.0    91    5.6   0.0   ---   0.00   0.0   ---    7.0    7.1    7.1  1019.0  0.00   0.0   0.079   0.000   21.0    38    6.1   19.4   7.55 1.1962     ---   191    1     83.8   10 
27/05/20 10:40p    6.9    7.0    6.9    91    5.5   0.0   ---   0.00   0.0   ---    6.9    6.9    6.9  1019.0  0.00   0.0   0.079   0.000   20.9    38    6.1   19.4   7.55 1.1965     ---   159    1     69.7   10 
27/05/20 10:50p    6.8    6.9    6.8    91    5.4   0.0   ---   0.00   0.0   ---    6.8    6.8    6.8  1019.0  0.00   0.0   0.080   0.000   20.7    38    5.9   19.2   7.55 1.1976     ---   182    1     79.8   10 
27/05/20 11:00p    6.7    6.8    6.7    91    5.3   0.0   ---   0.00   0.0   ---    6.7    6.7    6.7  1019.0  0.00   0.0   0.081   0.000   20.4    38    5.6   19.0   7.55 1.1989     ---   189    1     82.9   10 
27/05/20 11:10p    6.4    6.7    6.4    91    5.1   0.0   ---   0.00   0.0   ---    6.4    6.5    6.5  1019.0  0.00   0.0   0.083   0.000   20.3    38    5.5   18.8   7.55 1.1997     ---   183    1     80.3   10 
27/05/20 11:20p    6.2    6.4    6.2    91    4.9   0.0   ---   0.00   0.0   ---    6.2    6.2    6.2  1018.7  0.00   0.0   0.084   0.000   20.1    38    5.3   18.6   7.55 1.2004     ---   183    1     80.3   10 
27/05/20 11:30p    5.9    6.2    5.9    91    4.6   0.0   ---   0.00   0.0   ---    5.9    5.9    5.9  1018.9  0.00   0.0   0.086   0.000   19.9    38    5.1   18.4   7.55 1.2014     ---   182    1     79.8   10 
27/05/20 11:40p    5.9    5.9    5.9    91    4.5   0.0   ---   0.00   0.0   ---    5.9    5.9    5.9  1018.9  0.00   0.0   0.086   0.000   19.7    38    5.0   18.2   7.55 1.2022     ---   184    1     80.7   10 
27/05/20 11:50p    5.7    5.9    5.7    91    4.4   0.0   ---   0.00   0.0   ---    5.7    5.7    5.7  1019.1  0.00   0.0   0.088   0.000   19.5    38    4.8   18.0   7.55 1.2036     ---   171    1     75.0   10 
28/05/20 12:00a    5.5    5.7    5.5    91    4.1   0.0   ---   0.00   0.0   ---    5.5    5.5    5.5  1019.0  0.00   0.0   0.089   0.000   19.3    38    4.6   17.8   7.55 1.2042     ---   149    1     65.4   10 
28/05/20 12:10a    5.3    5.5    5.3    91    4.0   0.0   ---   0.00   0.0   ---    5.3    5.3    5.3  1019.0  0.00   0.0   0.090   0.000   19.2    38    4.5   17.6   7.55 1.2050     ---   138    1     60.5   10 
28/05/20 12:20a    5.1    5.2    5.0    91    3.8   0.0   ---   0.00   0.0   ---    5.1    5.1    5.1  1019.1  0.00   0.0   0.092   0.000   19.0    38    4.3   17.4   7.55 1.2059     ---   162    1     71.1   10 
28/05/20 12:30a    4.8    5.0    4.8    91    3.5   0.0   ---   0.00   0.0   ---    4.8    4.8    4.8  1019.2  0.00   0.0   0.094   0.000   18.9    38    4.3   17.3   7.55 1.2065     ---   189    1     82.9   10 
28/05/20 12:40a    4.8    4.8    4.8    91    3.4   0.0   ---   0.00   0.0   ---    4.8    4.7    4.7  1019.2  0.00   0.0   0.094   0.000   18.7    39    4.5   17.2   7.74 1.2071     ---   177    1     77.6   10 
28/05/20 12:50a    4.7    4.8    4.7    91    3.3   0.0   ---   0.00   0.0   ---    4.7    4.6    4.6  1019.2  0.00   0.0   0.095   0.000   18.6    39    4.3   17.1   7.74 1.2079     ---   181    1     79.4   10 
28/05/20  1:00a    4.6    4.7    4.6    92    3.4   0.0   ---   0.00   0.0   ---    4.6    4.6    4.6  1019.0  0.00   0.0   0.095   0.000   18.4    39    4.2   16.9   7.75 1.2082     ---   175    1     76.8   10 
28/05/20  1:10a    4.6    4.6    4.6    92    3.4   0.0   ---   0.00   0.0   ---    4.6    4.6    4.6  1019.0  0.00   0.0   0.096   0.000   18.3    39    4.1   16.8   7.75 1.2090     ---   183    1     80.3   10 
28/05/20  1:20a    4.6    4.6    4.6    92    3.4   0.0   ---   0.00   0.0   ---    4.6    4.6    4.6  1019.1  0.00   0.0   0.095   0.000   18.2    39    4.0   16.7   7.74 1.2096     ---   179    1     78.5   10 
28/05/20  1:30a    4.8    4.8    4.6    93    3.8   0.0   ---   0.00   0.0   ---    4.8    4.8    4.8  1019.2  0.00   0.0   0.094   0.000   18.1    39    3.9   16.6   7.74 1.2100     ---   185    1     81.1   10 
28/05/20  1:40a    5.2    5.2    4.8    93    4.1   0.0   ---   0.00   0.0   ---    5.2    5.2    5.2  1019.2  0.00   0.0   0.091   0.000   17.9    39    3.7   16.3   7.73 1.2110     ---   175    1     76.8   10 
28/05/20  1:50a    5.2    5.2    5.2    93    4.2   0.0   ---   0.00   0.0   ---    5.2    5.2    5.2  1019.0  0.00   0.0   0.091   0.000   17.8    39    3.7   16.3   7.73 1.2110     ---   167    1     73.2   10 
28/05/20  2:00a    5.2    5.2    5.2    93    4.1   0.0   ---   0.00   0.0   ---    5.2    5.2    5.2  1018.9  0.00   0.0   0.091   0.000   17.7    39    3.6   16.2   7.73 1.2115     ---   152    1     66.7   10 
28/05/20  2:10a    5.2    5.2    5.2    93    4.1   0.0   ---   0.00   0.0   ---    5.2    5.2    5.2  1018.9  0.00   0.0   0.091   0.000   17.6    39    3.5   16.1   7.72 1.2120     ---   138    1     60.5   10 
28/05/20  2:20a    5.1    5.2    5.1    93    4.1   0.0   ---   0.00   0.0   ---    5.1    5.1    5.1  1018.8  0.00   0.0   0.092   0.000   17.6    39    3.4   16.0   7.72 1.2121     ---   160    1     70.2   10 
28/05/20  2:30a    5.1    5.1    5.1    94    4.2   0.0   ---   0.00   0.0   ---    5.1    5.2    5.2  1018.7  0.00   0.0   0.092   0.000   17.4    39    3.3   15.9   7.72 1.2126     ---   178    1     78.1   10 
28/05/20  2:40a    5.2    5.2    5.1    94    4.3   0.0   ---   0.00   0.0   ---    5.2    5.3    5.3  1018.7  0.00   0.0   0.091   0.000   17.4    39    3.3   15.8   7.72 1.2129     ---   172    1     75.4   10 
28/05/20  2:50a    5.2    5.2    5.2    94    4.3   0.0   ---   0.00   0.0   ---    5.2    5.2    5.2  1018.8  0.00   0.0   0.091   0.000   17.3    39    3.2   15.7   7.71 1.2135     ---   176    1     77.2   10 
28/05/20  3:00a    5.0    5.2    5.0    94    4.1   0.0   ---   0.00   0.0   ---    5.0    5.1    5.1  1018.7  0.00   0.0   0.093   0.000   17.2    39    3.1   15.7   7.71 1.2136     ---   177    1     77.6   10 
28/05/20  3:10a    5.0    5.0    4.9    94    4.1   0.0   ---   0.00   0.0   ---    5.0    5.1    5.1  1018.7  0.00   0.0   0.093   0.000   17.1    39    3.0   15.6   7.71 1.2142     ---   180    1     78.9   10 
28/05/20  3:20a    5.1    5.1    4.9    95    4.4   0.0   ---   0.00   0.0   ---    5.1    5.2    5.2  1018.8  0.00   0.0   0.092   0.000   17.0    39    2.9   15.4   7.70 1.2148     ---   170    1     74.6   10 
28/05/20  3:30a    5.1    5.1    5.1    95    4.4   0.0   ---   0.00   0.0   ---    5.1    5.2    5.2  1018.8  0.00   0.0   0.092   0.000   16.9    39    2.9   15.4   7.70 1.2150     ---   150    1     65.8   10 
28/05/20  3:40a    5.0    5.1    4.9    95    4.3   0.0   ---   0.00   0.0   ---    5.0    5.1    5.1  1018.8  0.00   0.0   0.093   0.000   16.8    39    2.8   15.3   7.70 1.2155     ---   177    1     77.6   10 
28/05/20  3:50a    4.8    4.9    4.8    95    4.0   0.0   ---   0.00   0.0   ---    4.8    4.8    4.8  1018.8  0.00   0.0   0.094   0.000   16.8    39    2.8   15.3   7.70 1.2156     ---   161    1     70.6   10 
28/05/20  4:00a    4.8    4.8    4.8    95    4.1   0.0   ---   0.00   0.0   ---    4.8    4.9    4.9  1018.9  0.00   0.0   0.094   0.000   16.8    39    2.7   15.2   7.69 1.2160     ---   150    1     65.8   10 
28/05/20  4:10a    4.7    4.8    4.7    95    3.9   0.0   ---   0.00   0.0   ---    4.7    4.7    4.7  1018.9  0.00   0.0   0.095   0.000   16.7    39    2.6   15.1   7.69 1.2165     ---   128    1     56.1   10 
28/05/20  4:20a    4.6    4.7    4.6    95    3.9   0.0   ---   0.00   0.0   ---    4.6    4.7    4.7  1019.0  0.00   0.0   0.095   0.000   16.6    39    2.6   15.1   7.69 1.2169     ---   189    1     82.9   10 
28/05/20  4:30a    4.8    4.8    4.6    96    4.2   0.0   ---   0.00   0.0   ---    4.8    4.8    4.8  1019.1  0.00   0.0   0.094   0.000   16.5    39    2.5   14.9   7.68 1.2175     ---   174    1     76.3   10 
28/05/20  4:40a    4.8    4.8    4.8    96    4.2   0.0   ---   0.00   0.0   ---    4.8    4.8    4.8  1019.1  0.00   0.0   0.094   0.000   16.4    39    2.4   14.8   7.68 1.2180     ---   173    1     75.9   10 
28/05/20  4:50a    4.8    4.8    4.8    96    4.2   0.0   ---   0.00   0.0   ---    4.8    4.9    4.9  1019.0  0.00   0.0   0.094   0.000   16.3    39    2.3   14.8   7.68 1.2182     ---   176    1     77.2   10 
28/05/20  5:00a    4.8    4.8    4.8    96    4.2   0.0   ---   0.00   0.0   ---    4.8    4.8    4.8  1018.9  0.00   0.0   0.094   0.000   16.2    39    2.2   14.7   7.67 1.2187     ---   170    1     74.6   10 
28/05/20  5:10a    4.8    4.8    4.8    96    4.2   0.0   ---   0.00   0.0   ---    4.8    4.9    4.9  1018.9  0.00   0.0   0.094   0.000   16.2    39    2.2   14.7   7.67 1.2187     ---   175    1     76.8   10 
28/05/20  5:20a    4.8    4.8    4.8    96    4.2   0.0   ---   0.00   0.0   ---    4.8    4.9    4.9  1019.2  0.00   0.0   0.094   0.000   16.2    39    2.2   14.6   7.67 1.2192     ---   166    1     72.8   10 
28/05/20  5:30a    4.9    4.9    4.8    97    4.5   0.0   ---   0.00   0.0   ---    4.9    5.0    5.0  1019.2  0.00   0.0   0.093   0.000   16.1    39    2.1   14.5   7.67 1.2198     ---   168    1     73.7   10 
28/05/20  5:40a    5.0    5.0    4.9    97    4.6   0.0   ---   0.00   0.0   ---    5.0    5.1    5.1  1019.2  0.00   0.0   0.093   0.000   16.0    40    2.4   14.5   7.85 1.2199     ---   171    1     75.0   10 
28/05/20  5:50a    5.1    5.1    5.0    97    4.7   0.0   ---   0.00   0.0   ---    5.1    5.2    5.2  1019.4  0.00   0.0   0.092   0.000   16.0    40    2.4   14.5   7.85 1.2201     ---   163    1     71.5   10 
28/05/20  6:00a    5.1    5.1    5.0    97    4.7   0.0   ---   0.00   0.0   ---    5.1    5.2    5.2  1019.6  0.00   0.0   0.092   0.000   15.9    40    2.3   14.4   7.85 1.2209     ---   137    1     60.1   10 
28/05/20  6:10a    5.1    5.1    5.0    97    4.7   0.0   ---   0.00   0.0   ---    5.1    5.2    5.2  1019.6  0.00   0.0   0.092   0.000   15.9    40    2.3   14.4   7.85 1.2209     ---   143    1     62.7   10 
28/05/20  6:20a    5.2    5.2    5.0    98    4.9   0.0   ---   0.00   0.0   ---    5.2    5.3    5.3  1020.1  0.00   0.0   0.091   0.000   15.8    40    2.2   14.3   7.85 1.2219     ---   187    1     82.0   10 
28/05/20  6:30a    5.2    5.2    5.1    98    4.9   0.0   ---   0.00   0.0   ---    5.2    5.3    5.3  1020.1  0.00   0.0   0.091   0.000   15.7    40    2.1   14.2   7.85 1.2222     ---   175    1     76.8   10 
28/05/20  6:40a    5.2    5.2    5.2    98    4.9   0.0   ---   0.00   0.0   ---    5.2    5.3    5.3  1020.1  0.00   0.0   0.091   0.000   15.7    40    2.1   14.2   7.85 1.2222     ---   173    1     75.9   10 
28/05/20  6:50a    5.2    5.2    5.2    98    4.9   0.0   ---   0.00   0.0   ---    5.2    5.3    5.3  1020.2  0.00   0.0   0.091   0.000   15.6    40    2.0   14.1   7.85 1.2229     ---   164    1     71.9   10 
28/05/20  7:00a    5.2    5.2    5.2    98    4.9   0.0   ---   0.00   0.0   ---    5.2    5.3    5.3  1020.4  0.00   0.0   0.091   0.000   16.1    40    2.4   14.6   7.85 1.2210     ---   176    1     77.2   10 
28/05/20  7:10a    5.2    5.2    5.2    98    4.9   0.0   ---   0.00   0.0   ---    5.2    5.3    5.3  1020.4  0.00   0.0   0.091   0.000   16.8    41    3.4   15.3   8.01 1.2173     ---   161    1     70.6   10 
28/05/20  7:20a    5.3    5.3    5.2    99    5.2   0.0   ---   0.00   0.0   ---    5.3    5.4    5.4  1020.7  0.00   0.0   0.090   0.000   17.4    41    4.0   16.0   7.98 1.2145     ---   168    1     73.7   10 
28/05/20  7:30a    5.4    5.4    5.3    99    5.2   0.0   ---   0.00   0.0   ---    5.4    5.5    5.5  1021.0  0.00   0.0   0.090   0.000   18.2    41    4.7   16.8   7.96 1.2113     ---   165    1     72.4   10 
28/05/20  7:40a    5.4    5.4    5.4    99    5.2   0.0   ---   0.00   0.0   ---    5.4    5.5    5.5  1021.0  0.00   0.0   0.090   0.000   18.8    42    5.6   17.5   8.13 1.2079     ---   139    1     61.0   10 
28/05/20  7:50a    5.4    5.4    5.4    99    5.2   0.0   ---   0.00   0.0   ---    5.4    5.5    5.5  1021.1  0.00   0.0   0.090   0.000   19.2    40    5.2   17.8   7.82 1.2070     ---    80    1     35.1   10 
28/05/20  8:00a    5.5    5.5    5.4    99    5.4   0.0   ---   0.00   0.0   ---    5.5    5.6    5.6  1021.2  0.00   0.0   0.089   0.000   19.4    39    5.1   18.0   7.71 1.2060     ---    47    1     20.6   10 
28/05/20  8:10a    5.7    5.7    5.5    99    5.5   0.0   ---   0.00   0.0   ---    5.7    5.8    5.8  1021.2  0.00   0.0   0.088   0.000   19.7    38    5.0   18.2   7.55 1.2049     ---   112    1     49.1   10 
28/05/20  8:20a    5.8    5.8    5.7   100    5.8   0.0   ---   0.00   0.0   ---    5.8    5.9    5.9  1021.5  0.00   0.0   0.087   0.000   20.0    39    5.6   18.6   7.69 1.2037     ---   181    1     79.4   10 
28/05/20  8:30a    6.1    6.1    5.8   100    6.1   0.0   ---   0.00   0.0   ---    6.1    6.2    6.2  1021.7  0.00   0.0   0.085   0.000   20.3    39    5.9   18.9   7.68 1.2026     ---   155    1     68.0   10 
28/05/20  8:40a    6.1    6.1    5.9   100    6.1   0.0   ---   0.00   0.0   ---    6.1    6.2    6.2  1021.7  0.00   0.0   0.085   0.000   20.8    38    6.0   19.3   7.55 1.2002     ---   147    1     64.5   10 
28/05/20  8:50a    6.2    6.2    6.1   100    6.2   0.0   ---   0.00   0.0   ---    6.2    6.4    6.4  1021.8  0.00   0.0   0.084   0.000   20.9    38    6.1   19.4   7.55 1.1999     ---   155    1     68.0   10 
28/05/20  9:00a    6.3    6.3    6.2   100    6.3   0.0   ---   0.00   0.0   ---    6.3    6.5    6.5  1021.9  0.00   0.0   0.083   0.000   21.2    37    5.9   19.6   7.35 1.1989     ---   149    1     65.4   10 
28/05/20  9:10a    6.6    6.6    6.3   100    6.6   0.0   ---   0.00   0.0   ---    6.6    6.8    6.8  1021.9  0.00   0.0   0.081   0.000   21.2    38    6.3   19.7   7.54 1.1986     ---   140    1     61.4   10 
28/05/20  9:20a    6.9    6.9    6.6   100    6.9   0.0   ---   0.00   0.0   ---    6.9    7.1    7.1  1021.9  0.00   0.0   0.079   0.000   21.5    38    6.6   20.0   7.52 1.1973     ---   142    1     62.3   10 
28/05/20  9:30a    7.1    7.1    6.9   100    7.1   0.0   ---   0.00   0.0   ---    7.1    7.3    7.3  1021.8  0.00   0.0   0.078   0.000   21.8    38    6.9   20.5   7.50 1.1957     ---   133    1     58.3   10 
28/05/20  9:40a    7.5    7.5    7.1   100    7.5   0.0   ---   0.00   0.0   ---    7.5    7.7    7.7  1021.8  0.00   0.0   0.075   0.000   22.2    36    6.4   20.9   7.17 1.1947     ---    70    1     30.7   10 
28/05/20  9:50a    7.6    7.7    7.5   100    7.6   0.0   ---   0.00   0.0   ---    7.6    7.8    7.8  1021.7  0.00   0.0   0.075   0.000   22.1    35    5.9   20.7   7.02 1.1954     ---    53    1     23.2   10 
28/05/20 10:00a    7.9    7.9    7.6   100    7.9   0.0   ---   0.00   0.0   ---    7.9    8.1    8.1  1021.7  0.00   0.0   0.073   0.000   22.2    37    6.8   21.0   7.31 1.1939     ---    46    1     20.2   10 
28/05/20 10:10a    8.3    8.3    7.8   100    8.3   0.0   ---   0.00   0.0   ---    8.3    8.6    8.6  1021.7  0.00   0.0   0.070   0.000   22.4    35    6.2   21.2   7.00 1.1935     ---   152    1     66.7   10 
28/05/20 10:20a    8.4    8.4    8.3   100    8.4   0.0   ---   0.00   0.0   ---    8.4    8.7    8.7  1021.7  0.00   0.0   0.069   0.000   22.2    35    6.0   20.9   7.01 1.1946     ---   112    1     49.1   10 
28/05/20 10:30a    8.6    8.6    8.2   100    8.6   0.0   ---   0.00   0.0   ---    8.6    8.8    8.8  1021.7  0.00   0.0   0.068   0.000   22.5    36    6.7   21.4   7.15 1.1930     ---    87    1     38.2   10 
28/05/20 10:40a    8.8    8.8    8.4   100    8.8   0.0   ---   0.00   0.0   ---    8.8    9.1    9.1  1021.7  0.00   0.0   0.066   0.000   22.6    34    5.9   21.4   6.80 1.1931     ---    72    1     31.6   10 
28/05/20 10:50a    9.2    9.2    8.8   100    9.2   0.0   ---   0.00   0.0   ---    9.2    9.6    9.6  1021.4  0.00   0.0   0.063   0.000   22.5    34    5.8   21.3   6.80 1.1932     ---    79    1     34.6   10 
28/05/20 11:00a   10.0   10.0    9.2   100   10.0   0.0   ---   0.00   0.0   ---   10.0   10.4   10.4  1021.1  0.00   0.0   0.058   0.000   22.6    36    6.8   21.6   7.14 1.1917     ---    99    1     43.4   10 
28/05/20 11:10a   11.3   11.3   10.1   100   11.3   0.0   ---   0.00   0.0   ---   11.3   11.6   11.6  1021.1  0.00   0.0   0.049   0.000   22.6    35    6.4   21.5   7.00 1.1920     ---    78    1     34.2   10 
28/05/20 11:20a   11.5   11.5   11.3    99   11.3   0.0   ---   0.00   0.0   ---   11.5   11.7   11.7  1020.8  0.00   0.0   0.047   0.000   22.5    35    6.3   21.3   7.00 1.1922     ---    71    1     31.1   10 
28/05/20 11:30a   11.9   11.9   11.8    99   11.7   0.0   ---   0.00   0.0   ---   11.9   12.1   12.1  1020.5  0.00   0.0   0.045   0.000   22.4    35    6.2   21.2   7.00 1.1921     ---    15    1      6.6   10 
28/05/20 11:40a   12.5   12.5   12.3    99   12.3   0.0   ---   0.00   0.0   ---   12.5   12.7   12.7  1020.5  0.00   0.0   0.041   0.000   22.4    36    6.6   21.3   7.15 1.1918     ---     6    1      2.6   10 
28/05/20 11:50a   13.4   13.4   13.1    99   13.2   0.0   ---   0.00   0.0   ---   13.4   13.6   13.6  1020.1  0.00   0.0   0.034   0.000   22.4    36    6.6   21.3   7.15 1.1913     ---    14    1      6.1   10 
28/05/20 12:00p   14.1   14.1   13.5    73    9.3   0.0   ---   0.00   0.0   ---   14.1   13.7   13.7  1019.7  0.00   0.0   0.030   0.000   22.3    36    6.5   21.1   7.16 1.1914     ---   141    1     61.8   10 
28/05/20 12:10p   14.6   14.6   14.1    67    8.5   0.0   ---   0.00   0.0   ---   14.6   14.1   14.1  1019.7  0.00   0.0   0.026   0.000   22.2    35    6.0   20.9   7.01 1.1923     ---   155    1     68.0   10 
28/05/20 12:20p   15.2   15.2   14.7    61    7.7   0.0   ---   0.00   0.0   ---   15.2   14.6   14.6  1019.6  0.00   0.0   0.022   0.000   22.2    35    6.0   20.9   7.01 1.1922     ---   161    1     70.6   10 
28/05/20 12:30p   15.7   15.7   15.2    58    7.5   0.0   ---   0.00   0.0   ---   15.7   14.9   14.9  1019.3  0.00   0.0   0.018   0.000   22.2    35    6.0   20.8   7.01 1.1921     ---   156    1     68.4   10 
28/05/20 12:40p   16.2   16.2   15.8    56    7.4   0.0   ---   0.00   0.0   ---   16.2   15.3   15.3  1019.3  0.00   0.0   0.015   0.000   22.2    35    6.0   20.8   7.01 1.1921     ---   149    1     65.4   10 
28/05/20 12:50p   16.3   16.3   16.2    56    7.5   0.0   ---   0.00   0.0   ---   16.3   15.5   15.5  1019.1  0.00   0.0   0.014   0.000   22.2    35    6.0   20.8   7.01 1.1918     ---   146    1     64.0   10 
28/05/20  1:00p   16.4   16.4   16.3    57    7.9   0.0   ---   0.00   0.0   ---   16.4   15.7   15.7  1019.1  0.00   0.0   0.013   0.000   22.2    36    6.4   20.9   7.17 1.1915     ---   159    1     69.7   10 
28/05/20  1:10p   16.4   16.4   16.3    57    7.9   0.0   ---   0.00   0.0   ---   16.4   15.7   15.7  1019.1  0.00   0.0   0.013   0.000   22.2    36    6.4   20.9   7.17 1.1915     ---   141    1     61.8   10 
28/05/20  1:20p   16.2   16.4   16.2    58    7.9   0.0   ---   0.00   0.0   ---   16.2   15.4   15.4  1018.9  0.00   0.0   0.015   0.000   22.1    36    6.3   20.7   7.18 1.1917     ---   195    1     85.5   10 
28/05/20  1:30p   16.3   16.3   16.2    58    8.0   0.0   ---   0.00   0.0   ---   16.3   15.6   15.6  1018.8  0.00   0.0   0.014   0.000   22.1    36    6.3   20.7   7.18 1.1917     ---   173    1     75.9   10 
28/05/20  1:40p   16.3   16.3   16.3    58    8.0   0.0   ---   0.00   0.0   ---   16.3   15.6   15.6  1018.8  0.00   0.0   0.014   0.000   22.1    36    6.3   20.7   7.18 1.1917     ---   145    1     63.6   10 
28/05/20  1:50p   16.3   16.3   16.3    59    8.3   0.0   ---   0.00   0.0   ---   16.3   15.6   15.6  1018.8  0.00   0.0   0.014   0.000   22.1    37    6.7   20.8   7.32 1.1913     ---   130    1     57.0   10 
28/05/20  2:00p   16.1   16.3   16.1    59    8.1   0.0   ---   0.00   0.0   ---   16.1   15.4   15.4  1018.8  0.00   0.0   0.015   0.000   22.1    37    6.7   20.8   7.32 1.1913     ---   126    1     55.3   10 
28/05/20  2:10p   15.9   16.1   15.8    60    8.1   0.0   ---   0.00   0.0   ---   15.9   15.2   15.2  1018.8  0.00   0.0   0.017   0.000   22.1    37    6.7   20.8   7.32 1.1913     ---   138    1     60.5   10 
28/05/20  2:20p   16.0   16.0   15.9    58    7.7   0.0   ---   0.00   0.0   ---   16.0   15.2   15.2  1018.7  0.00   0.0   0.016   0.000   22.1    37    6.7   20.8   7.32 1.1912     ---   127    1     55.7   10 
28/05/20  2:30p   16.0   16.0   15.9    60    8.2   0.0   ---   0.00   0.0   ---   16.0   15.3   15.3  1018.7  0.00   0.0   0.016   0.000   22.1    37    6.7   20.8   7.32 1.1912     ---   123    1     53.9   10 
28/05/20  2:40p   15.7   16.0   15.7    58    7.4   0.0   ---   0.00   0.0   ---   15.7   14.9   14.9  1018.7  0.00   0.0   0.019   0.000   22.2    37    6.8   20.9   7.31 1.1906     ---    90    1     39.5   10 
28/05/20  2:50p   15.5   15.7   15.5    58    7.3   0.0   ---   0.00   0.0   ---   15.5   14.7   14.7  1018.9  0.00   0.0   0.020   0.000   22.2    38    7.2   21.0   7.47 1.1906     ---   169    1     74.1   10 
28/05/20  3:00p   15.3   15.5   15.3    60    7.6   0.0   ---   0.00   0.0   ---   15.3   14.6   14.6  1018.9  0.00   0.0   0.021   0.000   22.2    38    7.2   21.0   7.47 1.1906     ---   147    1     64.5   10 
28/05/20  3:10p   15.2   15.3   15.2    59    7.2   0.0   ---   0.00   0.0   ---   15.2   14.4   14.4  1018.9  0.00   0.0   0.022   0.000   22.2    38    7.2   21.0   7.47 1.1906     ---   143    1     62.7   10 
28/05/20  3:20p   15.0   15.2   15.0    60    7.3   0.0   ---   0.00   0.0   ---   15.0   14.3   14.3  1019.0  0.00   0.0   0.023   0.000   22.2    38    7.2   21.1   7.47 1.1904     ---   141    1     61.8   10 
28/05/20  3:30p   14.7   15.0   14.7    61    7.3   0.0   ---   0.00   0.0   ---   14.7   14.1   14.1  1019.0  0.00   0.0   0.025   0.000   22.2    38    7.2   21.1   7.47 1.1905     ---   131    1     57.5   10 
28/05/20  3:40p   14.5   14.7   14.5    61    7.1   0.0   ---   0.00   0.0   ---   14.5   13.8   13.8  1019.0  0.00   0.0   0.027   0.000   22.2    38    7.2   21.1   7.47 1.1905     ---   139    1     61.0   10 
28/05/20  3:50p   14.2   14.5   14.2    61    6.8   0.0   ---   0.00   0.0   ---   14.2   13.6   13.6  1019.2  0.00   0.0   0.029   0.000   22.2    38    7.2   21.1   7.47 1.1907     ---    98    1     43.0   10 
28/05/20  4:00p   13.9   14.1   13.9    61    6.5   0.0   ---   0.00   0.0   ---   13.9   13.3   13.3  1019.3  0.00   0.0   0.030   0.000   22.2    38    7.2   21.1   7.47 1.1908     ---    62    1     27.2   10 
28/05/20  4:10p   13.7   13.9   13.7    62    6.6   0.0   ---   0.00   0.0   ---   13.7   13.1   13.1  1019.3  0.00   0.0   0.032   0.000   22.1    38    7.1   20.8   7.48 1.1916     ---    72    1     31.6   10 
28/05/20  4:20p   13.6   13.7   13.6    64    6.9   0.0   ---   0.00   0.0   ---   13.6   12.9   12.9  1019.3  0.00   0.0   0.033   0.000   22.1    38    7.1   20.8   7.48 1.1916     ---   110    1     48.2   10 
28/05/20  4:30p   13.3   13.6   13.3    64    6.7   0.0   ---   0.00   0.0   ---   13.3   12.7   12.7  1019.5  0.00   0.0   0.035   0.000   21.8    38    6.9   20.5   7.50 1.1929     ---   128    1     56.1   10 
28/05/20  4:40p   13.1   13.3   13.1    64    6.4   0.0   ---   0.00   0.0   ---   13.1   12.4   12.4  1019.5  0.00   0.0   0.037   0.000   21.8    39    7.2   20.4   7.63 1.1929     ---   139    1     61.0   10 
28/05/20  4:50p   12.7   13.0   12.7    67    6.7   0.0   ---   0.00   0.0   ---   12.7   12.2   12.2  1019.9  0.00   0.0   0.039   0.000   21.7    38    6.7   20.2   7.51 1.1941     ---   140    1     61.4   10 
28/05/20  5:00p   12.4   12.7   12.4    68    6.6   0.0   ---   0.00   0.0   ---   12.4   11.9   11.9  1020.1  0.00   0.0   0.041   0.000   21.8    38    6.8   20.4   7.50 1.1939     ---   149    1     65.4   10 
28/05/20  5:10p   12.0   12.3   12.0    69    6.5   0.0   ---   0.00   0.0   ---   12.0   11.6   11.6  1020.1  0.00   0.0   0.044   0.000   21.8    38    6.8   20.4   7.50 1.1939     ---   170    1     74.6   10 
28/05/20  5:20p   11.7   12.0   11.7    70    6.4   0.0   ---   0.00   0.0   ---   11.7   11.3   11.3  1020.2  0.00   0.0   0.046   0.000   21.7    39    7.1   20.3   7.63 1.1942     ---   134    1     58.8   10 
28/05/20  5:30p   11.3   11.7   11.3    71    6.2   0.0   ---   0.00   0.0   ---   11.3   10.9   10.9  1020.5  0.00   0.0   0.049   0.000   21.6    39    7.0   20.2   7.63 1.1951     ---    97    1     42.5   10 
28/05/20  5:40p   10.9   11.2   10.9    72    6.1   0.0   ---   0.00   0.0   ---   10.9   10.7   10.7  1020.5  0.00   0.0   0.051   0.000   21.7    39    7.1   20.3   7.63 1.1946     ---    78    1     34.2   10 
28/05/20  5:50p   10.6   10.9   10.6    73    6.0   0.0   ---   0.00   0.0   ---   10.6   10.4   10.4  1020.7  0.00   0.0   0.054   0.000   21.6    39    7.0   20.2   7.63 1.1953     ---   113    1     49.6   10 
28/05/20  6:00p   10.3   10.6   10.3    74    5.8   0.0   ---   0.00   0.0   ---   10.3   10.1   10.1  1020.7  0.00   0.0   0.056   0.000   21.5    39    7.0   20.1   7.64 1.1956     ---   162    1     71.1   10 
28/05/20  6:10p    9.9   10.3    9.9    75    5.7   0.0   ---   0.00   0.0   ---    9.9    9.8    9.8  1020.7  0.00   0.0   0.058   0.000   21.5    39    7.0   20.1   7.64 1.1956     ---   156    1     68.4   10 
28/05/20  6:20p    9.7    9.9    9.7    76    5.7   0.0   ---   0.00   0.0   ---    9.7    9.6    9.6  1021.0  0.00   0.0   0.060   0.000   21.6    39    7.0   20.2   7.63 1.1957     ---   154    1     67.5   10 
28/05/20  6:30p    9.4    9.7    9.4    77    5.6   0.0   ---   0.00   0.0   ---    9.4    9.3    9.3  1021.2  0.00   0.0   0.062   0.000   21.5    39    7.0   20.1   7.64 1.1962     ---   161    1     70.6   10 
28/05/20  6:40p    9.3    9.4    9.3    78    5.6   0.0   ---   0.00   0.0   ---    9.3    9.2    9.2  1021.2  0.00   0.0   0.063   0.000   21.5    39    7.0   20.1   7.64 1.1962     ---   162    1     71.1   10 
28/05/20  6:50p    9.2    9.3    9.2    79    5.8   0.0   ---   0.00   0.0   ---    9.2    9.2    9.2  1021.4  0.00   0.0   0.063   0.000   21.6    39    7.0   20.2   7.63 1.1962     ---   158    1     69.3   10 
28/05/20  7:00p    9.1    9.2    9.1    79    5.6   0.0   ---   0.00   0.0   ---    9.1    9.0    9.0  1021.7  0.00   0.0   0.064   0.000   21.6    39    7.0   20.2   7.63 1.1965     ---   163    1     71.5   10 
28/05/20  7:10p    8.9    9.1    8.9    79    5.5   0.0   ---   0.00   0.0   ---    8.9    8.9    8.9  1021.7  0.00   0.0   0.065   0.000   21.6    39    7.0   20.2   7.63 1.1965     ---   159    1     69.7   10 
28/05/20  7:20p    8.7    8.9    8.7    80    5.5   0.0   ---   0.00   0.0   ---    8.7    8.7    8.7  1021.6  0.00   0.0   0.067   0.000   21.6    39    7.0   20.2   7.63 1.1964     ---   105    1     46.1   10 
28/05/20  7:30p    8.6    8.7    8.6    80    5.4   0.0   ---   0.00   0.0   ---    8.6    8.5    8.5  1021.9  0.00   0.0   0.068   0.000   21.4    39    6.9   19.9   7.64 1.1976     ---    73    1     32.0   10 
28/05/20  7:40p    8.4    8.6    8.4    81    5.4   0.0   ---   0.00   0.0   ---    8.4    8.4    8.4  1021.9  0.00   0.0   0.069   0.000   21.5    39    7.0   20.1   7.64 1.1970     ---    88    1     38.6   10 
28/05/20  7:50p    8.4    8.4    8.4    81    5.3   0.0   ---   0.00   0.0   ---    8.4    8.3    8.3  1022.2  0.00   0.0   0.069   0.000   21.4    39    6.9   19.9   7.64 1.1978     ---   199    1     87.3   10 
28/05/20  8:00p    8.1    8.3    8.1    82    5.2   0.0   ---   0.00   0.0   ---    8.1    8.1    8.1  1022.2  0.00   0.0   0.071   0.000   21.2    39    6.7   19.7   7.65 1.1987     ---   185    1     81.1   10 
28/05/20  8:10p    7.9    8.1    7.9    82    5.0   0.0   ---   0.00   0.0   ---    7.9    7.8    7.8  1022.2  0.00   0.0   0.073   0.000   21.2    39    6.7   19.7   7.65 1.1987     ---   183    1     80.3   10 
28/05/20  8:20p    7.7    7.9    7.7    82    4.8   0.0   ---   0.00   0.0   ---    7.7    7.6    7.6  1022.4  0.00   0.0   0.074   0.000   21.0    39    6.5   19.5   7.65 1.1999     ---   171    1     75.0   10 
28/05/20  8:30p    7.4    7.7    7.4    82    4.5   0.0   ---   0.00   0.0   ---    7.4    7.3    7.3  1022.5  0.00   0.0   0.076   0.000   21.1    39    6.6   19.6   7.65 1.1996     ---   175    1     76.8   10 
28/05/20  8:40p    7.2    7.4    7.2    83    4.5   0.0   ---   0.00   0.0   ---    7.2    7.2    7.2  1022.5  0.00   0.0   0.077   0.000   20.9    39    6.5   19.4   7.66 1.2004     ---   187    1     82.0   10 
28/05/20  8:50p    6.9    7.2    6.9    83    4.2   0.0   ---   0.00   0.0   ---    6.9    6.8    6.8  1022.6  0.00   0.0   0.079   0.000   21.0    39    6.5   19.5   7.65 1.2003     ---   190    1     83.3   10 
28/05/20  9:00p    6.7    6.9    6.7    83    4.0   0.0   ---   0.00   0.0   ---    6.7    6.6    6.6  1023.0  0.00   0.0   0.081   0.000   20.9    38    6.1   19.4   7.55 1.2012     ---   178    1     78.1   10 
28/05/20  9:10p    6.5    6.7    6.5    84    4.0   0.0   ---   0.00   0.0   ---    6.5    6.4    6.4  1023.0  0.00   0.0   0.082   0.000   20.9    38    6.1   19.4   7.55 1.2012     ---   168    1     73.7   10 
28/05/20  9:20p    6.2    6.5    6.2    84    3.7   0.0   ---   0.00   0.0   ---    6.2    6.2    6.2  1022.9  0.00   0.0   0.084   0.000   20.8    38    6.0   19.3   7.55 1.2016     ---   103    1     45.2   10 
28/05/20  9:30p    5.9    6.2    5.9    84    3.4   0.0   ---   0.00   0.0   ---    5.9    5.8    5.8  1022.9  0.00   0.0   0.086   0.000   20.8    38    6.0   19.3   7.55 1.2017     ---   151    1     66.2   10 
28/05/20  9:40p    5.8    5.9    5.8    85    3.5   0.0   ---   0.00   0.0   ---    5.8    5.7    5.7  1022.9  0.00   0.0   0.087   0.000   20.7    38    5.9   19.2   7.55 1.2022     ---   209    1     91.7   10 
28/05/20  9:50p    5.7    5.8    5.7    86    3.6   0.0   ---   0.00   0.0   ---    5.7    5.7    5.7  1023.0  0.00   0.0   0.088   0.000   20.7    38    5.9   19.2   7.55 1.2023     ---   193    1     84.6   10 
28/05/20 10:00p    5.6    5.7    5.6    86    3.4   0.0   ---   0.00   0.0   ---    5.6    5.4    5.4  1023.1  0.00   0.0   0.089   0.000   20.6    38    5.8   19.1   7.55 1.2030     ---   193    1     84.6   10 
28/05/20 10:10p    5.5    5.6    5.5    87    3.5   0.0   ---   0.00   0.0   ---    5.5    5.4    5.4  1023.1  0.00   0.0   0.089   0.000   20.7    38    5.9   19.2   7.55 1.2024     ---   188    1     82.5   10 
28/05/20 10:20p    5.4    5.5    5.4    87    3.4   0.0   ---   0.00   0.0   ---    5.4    5.3    5.3  1023.0  0.00   0.0   0.090   0.000   20.6    38    5.8   19.1   7.55 1.2029     ---   185    1     81.1   10 
28/05/20 10:30p    5.2    5.4    5.2    87    3.2   0.0   ---   0.00   0.0   ---    5.2    5.2    5.2  1023.0  0.00   0.0   0.091   0.000   20.6    38    5.8   19.1   7.55 1.2029     ---   191    1     83.8   10 
28/05/20 10:40p    5.2    5.2    5.2    88    3.3   0.0   ---   0.00   0.0   ---    5.2    5.1    5.1  1023.0  0.00   0.0   0.091   0.000   20.6    38    5.7   19.1   7.55 1.2032     ---   187    1     82.0   10 
28/05/20 10:50p    5.1    5.2    5.1    88    3.3   0.0   ---   0.00   0.0   ---    5.1    5.1    5.1  1023.2  0.00   0.0   0.092   0.000   20.3    38    5.5   18.9   7.55 1.2045     ---   192    1     84.2   10 
28/05/20 11:00p    4.9    5.1    4.9    88    3.1   0.0   ---   0.00   0.0   ---    4.9    4.9    4.9  1023.2  0.00   0.0   0.093   0.000   20.2    38    5.4   18.7   7.55 1.2053     ---   177    1     77.6   10 
28/05/20 11:10p    4.8    4.9    4.8    88    3.0   0.0   ---   0.00   0.0   ---    4.8    4.7    4.7  1023.2  0.00   0.0   0.094   0.000   20.0    38    5.2   18.6   7.55 1.2061     ---   165    1     72.4   10 
28/05/20 11:20p    4.6    4.8    4.6    89    3.0   0.0   ---   0.00   0.0   ---    4.6    4.6    4.6  1022.7  0.00   0.0   0.095   0.000   19.7    38    5.0   18.2   7.55 1.2067     ---   138    1     60.5   10 
28/05/20 11:30p    4.6    4.6    4.6    89    2.9   0.0   ---   0.00   0.0   ---    4.6    4.5    4.5  1022.8  0.00   0.0   0.096   0.000   19.5    38    4.8   18.0   7.55 1.2079     ---   156    1     68.4   10 
28/05/20 11:40p    4.6    4.6    4.6    89    2.9   0.0   ---   0.00   0.0   ---    4.6    4.5    4.5  1022.8  0.00   0.0   0.096   0.000   19.3    38    4.6   17.8   7.55 1.2087     ---   207    1     90.8   10 
28/05/20 11:50p    4.4    4.6    4.4    89    2.8   0.0   ---   0.00   0.0   ---    4.4    4.4    4.4  1022.9  0.00   0.0   0.096   0.000   19.3    38    4.6   17.7   7.55 1.2091     ---   191    1     83.8   10 
29/05/20 12:00a    4.3    4.4    4.3    90    2.8   0.0   ---   0.00   0.0   ---    4.3    4.2    4.2  1022.9  0.00   0.0   0.098   0.000   19.1    38    4.4   17.5   7.55 1.2102     ---   190    1     83.3   10